Time;durP1;ratioP1;P1;durP2;ratioP2;P2;SDS_P1;SDS_P2;PMS_P1;PMS_P2;Temp;Humidity;BMP_temperature;BMP_pressure;BME280_temperature;BME280_humidity;BME280_pressure;Samples;Min_cycle;Max_cycle;Signal;HPM_P1;HPM_P2
2023/01/13 00:01:11;;;;;;;;;42.00;34.67;25.10;46.90;;;;;;112116;1249;56153;-60
2023/01/13 00:03:39;;;;;;;;;43.67;34.00;25.10;46.90;;;;;;112149;1245;49670;-60
2023/01/13 00:06:07;;;;;;;;;45.50;34.00;25.20;46.90;;;;;;112144;1249;49197;-60
2023/01/13 00:08:34;;;;;;;;;38.00;32.00;25.10;46.90;;;;;;112279;1244;45348;-60
2023/01/13 00:11:01;;;;;;;;;37.50;31.75;25.20;46.90;;;;;;112306;1247;56498;-60
2023/01/13 00:13:30;;;;;;;;;37.75;32.75;25.20;46.90;;;;;;112284;1247;56370;-60
2023/01/13 00:15:59;;;;;;;;;38.00;32.00;25.30;47.00;;;;;;112318;1247;49051;-60
2023/01/13 00:18:27;;;;;;;;;36.25;32.75;25.40;47.40;;;;;;112301;1247;49076;-60
2023/01/13 00:21:06;;;;;;;;;33.50;29.00;25.50;47.30;;;;;;112321;1244;45986;-60
2023/01/13 00:23:34;;;;;;;;;41.00;35.00;25.50;47.20;;;;;;111787;1247;56101;-60
2023/01/13 00:26:04;;;;;;;;;35.00;32.00;25.60;47.30;;;;;;112307;1247;55792;-60
2023/01/13 00:28:31;;;;;;;;;35.00;30.67;25.70;47.30;;;;;;112291;1247;50147;-60
2023/01/13 00:31:12;;;;;;;;;32.00;29.25;25.70;47.30;;;;;;112280;1244;50373;-60
2023/01/13 00:33:40;;;;;;;;;38.67;32.67;25.70;47.30;;;;;;112328;1247;44848;-59
2023/01/13 00:36:11;;;;;;;;;34.50;30.75;25.80;47.30;;;;;;112136;1244;55310;-59
2023/01/13 00:38:39;;;;;;;;;39.00;34.33;25.90;47.40;;;;;;112281;1244;56494;-60
2023/01/13 00:41:11;;;;;;;;;31.33;29.67;25.90;47.40;;;;;;112309;1244;49698;-59
2023/01/13 00:43:39;;;;;;;;;35.00;30.67;25.90;47.50;;;;;;112284;1244;49092;-60
2023/01/13 00:46:07;;;;;;;;;33.75;30.50;26.00;47.40;;;;;;112303;1245;44592;-59
2023/01/13 00:48:35;;;;;;;;;32.50;29.00;26.00;47.30;;;;;;112324;1244;55955;-59
2023/01/13 00:51:10;;;;;;;;;34.00;30.75;26.10;47.40;;;;;;112142;1247;56074;-60
2023/01/13 00:53:39;;;;;;;;;32.75;29.00;26.10;47.50;;;;;;112307;1247;49401;-60
2023/01/13 00:56:13;;;;;;;;;38.00;31.00;26.10;47.30;;;;;;112137;1245;49389;-60
2023/01/13 00:58:43;;;;;;;;;31.25;29.00;26.20;47.30;;;;;;112321;1247;44517;-60
2023/01/13 01:01:13;;;;;;;;;31.50;28.50;26.20;47.30;;;;;;112317;1247;57096;-60
2023/01/13 01:03:40;;;;;;;;;37.00;31.67;26.20;47.20;;;;;;112330;1244;56125;-60
2023/01/13 01:06:10;;;;;;;;;31.25;29.00;26.30;47.20;;;;;;112334;1244;49032;-60
2023/01/13 01:08:37;;;;;;;;;31.00;29.25;26.30;47.20;;;;;;112335;1247;49851;-60
2023/01/13 01:11:13;;;;;;;;;32.67;29.00;26.30;47.20;;;;;;112318;1247;45009;-60
2023/01/13 01:13:40;;;;;;;;;32.25;29.00;26.30;47.20;;;;;;112302;1247;56093;-60
2023/01/13 01:16:10;;;;;;;;;32.50;29.50;26.40;47.20;;;;;;112159;1248;55998;-60
2023/01/13 01:18:39;;;;;;;;;38.00;30.00;26.40;47.20;;;;;;112305;1247;49449;-60
2023/01/13 01:21:07;;;;;;;;;35.50;29.00;26.40;47.20;;;;;;112297;1247;49604;-58
2023/01/13 01:23:35;;;;;;;;;34.00;29.00;26.40;47.20;;;;;;112325;1244;45979;-59
2023/01/13 01:26:09;;;;;;;;;29.75;27.50;26.50;47.20;;;;;;112339;1247;56281;-59
2023/01/13 01:28:36;;;;;;;;;36.00;33.25;26.50;47.10;;;;;;112290;1247;56063;-59
2023/01/13 01:31:08;;;;;;;;;31.67;30.00;26.50;47.10;;;;;;112320;1248;50116;-59
2023/01/13 01:33:34;;;;;;;;;39.00;31.25;26.50;47.10;;;;;;112310;1247;48959;-59
2023/01/13 01:36:02;;;;;;;;;33.00;31.00;26.50;47.00;;;;;;112292;1248;45395;-59
2023/01/13 01:38:29;;;;;;;;;31.33;27.00;26.50;47.00;;;;;;112314;1243;55893;-59
2023/01/13 01:40:57;;;;;;;;;32.00;30.00;26.50;47.00;;;;;;112143;1247;56076;-59
2023/01/13 01:43:58;;;;;;;;;37.33;33.67;26.60;47.00;;;;;;112281;1244;50530;-60
2023/01/13 01:46:42;;;;;;;;;32.00;28.67;26.60;47.00;;;;;;112288;1247;50368;-59
2023/01/13 01:49:30;;;;;;;;;33.67;29.67;26.50;46.90;;;;;;112297;1248;45181;-59
2023/01/13 01:52:09;;;;;;;;;31.67;29.33;26.50;46.90;;;;;;112303;1244;55683;-60
2023/01/13 01:54:45;;;;;;;;;39.00;33.50;26.50;47.10;;;;;;112303;1243;55940;-60
2023/01/13 01:57:17;;;;;;;;;35.33;29.33;26.50;46.90;;;;;;112263;1247;50011;-60
2023/01/13 01:59:44;;;;;;;;;34.50;28.50;26.50;46.80;;;;;;112275;1248;49631;-59
2023/01/13 02:02:11;;;;;;;;;29.67;27.67;26.50;46.80;;;;;;112316;1244;45511;-60
2023/01/13 02:04:40;;;;;;;;;39.33;32.00;26.50;46.80;;;;;;112288;1247;56631;-59
2023/01/13 02:07:07;;;;;;;;;31.00;28.50;26.40;46.80;;;;;;112268;1244;55358;-60
2023/01/13 02:09:35;;;;;;;;;32.00;29.75;26.40;46.80;;;;;;112138;1245;49891;-59
2023/01/13 02:14:48;;;;;;;;;36.75;32.50;26.30;46.80;;;;;;112267;1247;45004;-59
2023/01/13 02:17:40;;;;;;;;;36.50;33.50;26.30;46.80;;;;;;112298;1244;56105;-59
2023/01/13 02:20:32;;;;;;;;;28.50;25.50;26.20;46.90;;;;;;112297;1244;56136;-60
2023/01/13 02:27:05;;;;;;;;;32.75;29.00;26.20;47.00;;;;;;112177;1244;49508;-60
2023/01/13 02:32:27;;;;;;;;;26.75;24.00;26.20;46.90;;;;;;112278;1247;56224;-60
2023/01/13 02:35:07;;;;;;;;;33.75;30.75;26.30;47.00;;;;;;112262;1247;55846;-60
2023/01/13 02:37:36;;;;;;;;;29.50;25.50;26.30;46.90;;;;;;112269;1247;49986;-60
2023/01/13 02:40:28;;;;;;;;;31.00;28.33;26.40;47.50;;;;;;112280;1244;49548;-58
2023/01/13 02:46:39;;;;;;;;;32.00;29.00;26.40;46.90;;;;;;112295;1247;55398;-59
2023/01/13 02:49:09;;;;;;;;;29.75;27.75;26.50;46.90;;;;;;112280;1244;55963;-59
2023/01/13 02:51:38;;;;;;;;;28.25;25.25;26.50;47.00;;;;;;112312;1247;49859;-59
2023/01/13 02:54:12;;;;;;;;;30.50;28.00;26.60;46.80;;;;;;112153;1249;49584;-59
2023/01/13 02:56:43;;;;;;;;;31.00;29.67;26.60;46.80;;;;;;112292;1247;44730;-59
2023/01/13 02:59:11;;;;;;;;;27.00;26.00;26.60;46.80;;;;;;112296;1247;57018;-59
2023/01/13 03:01:39;;;;;;;;;31.00;28.25;26.60;46.80;;;;;;112124;1247;55609;-60
2023/01/13 03:04:13;;;;;;;;;30.50;29.00;26.60;46.80;;;;;;112290;1247;49217;-60
2023/01/13 03:06:56;;;;;;;;;31.25;28.25;26.60;46.70;;;;;;112283;1247;49950;-60
2023/01/13 03:09:28;;;;;;;;;26.25;23.50;26.60;46.70;;;;;;112298;1247;45452;-60
2023/01/13 03:12:20;;;;;;;;;28.33;26.33;26.60;46.70;;;;;;112299;1247;56660;-59
2023/01/13 03:14:58;;;;;;;;;31.50;28.75;26.60;46.60;;;;;;112299;1247;56265;-59
2023/01/13 03:17:40;;;;;;;;;31.75;26.50;26.60;46.50;;;;;;112294;1243;50593;-59
2023/01/13 03:20:31;;;;;;;;;26.00;24.50;26.60;46.50;;;;;;112298;1244;50202;-60
2023/01/13 03:23:04;;;;;;;;;27.50;23.25;26.60;46.50;;;;;;112464;1247;44797;-60
2023/01/13 03:25:35;;;;;;;;;32.00;27.50;26.60;46.50;;;;;;112277;1247;55517;-60
2023/01/13 03:28:09;;;;;;;;;28.67;27.00;26.70;46.30;;;;;;112298;1247;55460;-60
2023/01/13 03:30:43;;;;;;;;;29.33;27.67;26.60;46.30;;;;;;112277;1244;49166;-60
2023/01/13 03:33:15;;;;;;;;;36.00;30.75;26.60;46.40;;;;;;112289;1244;49403;-60
2023/01/13 03:35:45;;;;;;;;;31.75;28.75;26.50;46.50;;;;;;112301;1247;44662;-60
2023/01/13 03:38:27;;;;;;;;;29.00;27.50;26.50;46.40;;;;;;112180;1247;56390;-60
2023/01/13 03:40:57;;;;;;;;;28.25;25.75;26.40;46.40;;;;;;112303;1247;57080;-60
2023/01/13 03:46:22;;;;;;;;;30.50;29.00;26.30;46.30;;;;;;112264;1247;50667;-59
2023/01/13 03:48:51;;;;;;;;;29.00;25.33;26.30;46.30;;;;;;112169;1248;44730;-59
2023/01/13 03:51:20;;;;;;;;;29.25;27.25;26.30;46.40;;;;;;112303;1247;56005;-59
2023/01/13 03:53:58;;;;;;;;;28.75;27.50;26.20;46.30;;;;;;112300;1247;55828;-60
2023/01/13 03:56:47;;;;;;;;;27.00;25.50;26.20;46.30;;;;;;112296;1247;49809;-59
2023/01/13 03:59:20;;;;;;;;;30.25;26.25;26.10;46.30;;;;;;112309;1247;49130;-60
2023/01/13 04:02:02;;;;;;;;;33.00;28.50;26.10;46.30;;;;;;112302;1244;45015;-59
2023/01/13 04:04:41;;;;;;;;;35.25;30.00;26.10;46.30;;;;;;112301;1244;56206;-60
2023/01/13 04:07:46;;;;;;;;;33.00;28.00;26.10;46.30;;;;;;112286;1244;56182;-60
2023/01/13 04:10:36;;;;;;;;;31.50;27.00;26.10;46.20;;;;;;112202;1247;49461;-60
2023/01/13 04:13:07;;;;;;;;;28.75;26.75;26.20;46.20;;;;;;112294;1247;50014;-60
2023/01/13 04:15:37;;;;;;;;;31.50;28.75;26.30;46.20;;;;;;112300;1247;44534;-60
2023/01/13 04:18:20;;;;;;;;;26.33;25.00;26.40;46.10;;;;;;112311;1247;55757;-60
2023/01/13 04:20:49;;;;;;;;;34.25;31.25;26.40;45.60;;;;;;112248;1247;55240;-60
2023/01/13 04:23:17;;;;;;;;;32.00;28.00;26.50;46.10;;;;;;112305;1247;49019;-59
2023/01/13 04:25:45;;;;;;;;;30.00;29.00;26.50;46.10;;;;;;112317;1248;49491;-59
2023/01/13 04:28:13;;;;;;;;;34.50;32.00;26.50;46.10;;;;;;112303;1244;44815;-59
2023/01/13 04:30:40;;;;;;;;;39.33;31.33;26.50;46.00;;;;;;112298;1247;56307;-60
2023/01/13 04:33:08;;;;;;;;;31.50;29.00;26.50;46.00;;;;;;112291;1247;55550;-60
2023/01/13 04:35:36;;;;;;;;;33.75;30.00;26.50;46.00;;;;;;112314;1247;49462;-59
2023/01/13 04:38:06;;;;;;;;;31.33;29.67;26.50;46.40;;;;;;112292;1247;48910;-59
2023/01/13 04:40:33;;;;;;;;;33.25;29.00;26.50;46.00;;;;;;112285;1248;45264;-58
2023/01/13 04:43:00;;;;;;;;;38.33;32.00;26.50;46.00;;;;;;112302;1247;55734;-58
2023/01/13 04:45:27;;;;;;;;;27.00;26.00;26.50;46.00;;;;;;112332;1247;56086;-58
2023/01/13 04:47:54;;;;;;;;;33.00;29.00;26.50;46.00;;;;;;112291;1244;48994;-60
2023/01/13 04:50:21;;;;;;;;;30.67;28.00;26.40;46.00;;;;;;112278;1247;49492;-60
2023/01/13 04:52:49;;;;;;;;;31.33;29.33;26.40;46.00;;;;;;112308;1247;44326;-60
2023/01/13 04:55:17;;;;;;;;;31.50;29.00;26.40;46.00;;;;;;112310;1248;56308;-59
2023/01/13 04:57:44;;;;;;;;;30.75;28.75;26.40;46.10;;;;;;112289;1244;55387;-60
2023/01/13 05:00:13;;;;;;;;;32.00;29.50;26.40;46.10;;;;;;112289;1244;50295;-60
2023/01/13 05:02:40;;;;;;;;;31.00;29.00;26.30;46.00;;;;;;112290;1247;49756;-60
2023/01/13 05:05:08;;;;;;;;;32.50;29.00;26.30;46.10;;;;;;112287;1244;44897;-60
2023/01/13 05:07:35;;;;;;;;;30.00;26.75;26.20;46.20;;;;;;112324;1247;55670;-60
2023/01/13 05:10:03;;;;;;;;;33.25;29.50;26.20;46.00;;;;;;112268;1245;56699;-60
2023/01/13 05:18:08;;;;;;;;;35.00;30.00;26.20;46.00;;;;;;112307;1247;44661;-62
2023/01/13 05:20:35;;;;;;;;;34.50;31.00;26.10;45.90;;;;;;112320;1244;55260;-60
2023/01/13 05:25:48;;;;;;;;;32.67;28.00;26.10;45.80;;;;;;112284;1247;49480;-60
2023/01/13 05:28:15;;;;;;;;;28.00;27.00;26.00;45.70;;;;;;112297;1247;48995;-60
2023/01/13 05:30:48;;;;;;;;;34.00;30.00;26.00;45.80;;;;;;112277;1244;44452;-60
2023/01/13 05:33:17;;;;;;;;;33.00;30.00;26.00;45.80;;;;;;112293;1247;56477;-61
2023/01/13 05:35:45;;;;;;;;;34.25;29.75;25.90;46.00;;;;;;112285;1247;55784;-62
2023/01/13 05:38:13;;;;;;;;;31.75;27.50;25.90;46.10;;;;;;112324;1244;50265;-61
2023/01/13 05:43:27;;;;;;;;;31.00;28.00;25.90;46.90;;;;;;112278;1247;45645;-60
2023/01/13 05:46:06;;;;;;;;;33.75;27.75;25.90;46.70;;;;;;112324;1244;55522;-59
2023/01/13 05:48:38;;;;;;;;;30.25;26.50;25.90;46.50;;;;;;112295;1247;56371;-59
2023/01/13 05:51:07;;;;;;;;;36.75;31.00;25.90;46.80;;;;;;112276;1247;49375;-59
2023/01/13 05:53:34;;;;;;;;;28.00;26.50;25.80;46.50;;;;;;112126;1250;49000;-60
2023/01/13 05:56:06;;;;;;;;;30.75;29.00;25.80;46.60;;;;;;112314;1247;46048;-60
2023/01/13 05:58:33;;;;;;;;;34.50;30.75;25.80;46.70;;;;;;112300;1247;56208;-61
2023/01/13 06:01:01;;;;;;;;;29.67;27.33;25.70;47.10;;;;;;112158;1244;55431;-61
2023/01/13 06:03:28;;;;;;;;;31.67;27.67;25.70;47.20;;;;;;112125;1247;49820;-61
2023/01/13 06:05:58;;;;;;;;;33.00;29.00;25.70;47.00;;;;;;112255;1247;49563;-61
2023/01/13 06:08:25;;;;;;;;;33.50;29.00;25.70;47.10;;;;;;112115;1248;44944;-64
2023/01/13 06:10:53;;;;;;;;;36.00;28.67;25.70;47.10;;;;;;112165;1247;56088;-61
2023/01/13 06:13:20;;;;;;;;;35.00;30.00;25.70;47.30;;;;;;112298;1247;56077;-61
2023/01/13 06:15:47;;;;;;;;;44.50;32.75;25.70;47.40;;;;;;112266;1247;49705;-61
2023/01/13 06:18:14;;;;;;;;;40.00;32.00;25.60;47.50;;;;;;112286;1247;49604;-60
2023/01/13 06:20:41;;;;;;;;;38.00;30.00;25.60;47.70;;;;;;112321;1244;44786;-59
2023/01/13 06:23:09;;;;;;;;;42.50;34.75;25.60;47.70;;;;;;112304;1247;56602;-60
2023/01/13 06:25:49;;;;;;;;;47.75;35.00;25.60;47.80;;;;;;112283;1247;55637;-60
2023/01/13 06:28:16;;;;;;;;;46.00;36.00;25.60;47.80;;;;;;112301;1247;49000;-59
2023/01/13 06:30:50;;;;;;;;;58.33;44.33;25.50;45.10;;;;;;112295;1248;48990;-58
2023/01/13 06:33:21;;;;;;;;;54.67;41.67;25.50;44.20;;;;;;112305;1243;44507;-58
2023/01/13 06:35:53;;;;;;;;;53.67;40.67;25.40;44.20;;;;;;112330;1247;56226;-59
2023/01/13 06:38:23;;;;;;;;;58.75;43.50;25.40;43.50;;;;;;112304;1247;56298;-61
2023/01/13 06:40:50;;;;;;;;;57.50;43.50;25.40;42.80;;;;;;112294;1244;49612;-64
2023/01/13 06:43:17;;;;;;;;;54.75;42.00;25.30;42.50;;;;;;112271;1247;50907;-58
2023/01/13 06:45:53;;;;;;;;;52.67;38.00;25.20;42.10;;;;;;112291;1247;45726;-59
2023/01/13 06:48:23;;;;;;;;;54.00;42.00;25.20;41.80;;;;;;112298;1247;56255;-58
2023/01/13 06:50:50;;;;;;;;;50.33;41.00;25.10;41.60;;;;;;112277;1247;55781;-58
2023/01/13 06:53:16;;;;;;;;;50.00;39.67;25.00;41.50;;;;;;112279;1247;49001;-59
2023/01/13 06:55:43;;;;;;;;;55.00;42.75;24.90;41.20;;;;;;112318;1247;49977;-58
2023/01/13 06:58:11;;;;;;;;;60.50;44.50;24.80;40.90;;;;;;112315;1245;46826;-58
2023/01/13 07:00:38;;;;;;;;;50.33;40.67;24.70;40.60;;;;;;112289;1247;56014;-58
2023/01/13 07:03:09;;;;;;;;;45.75;37.75;24.70;40.50;;;;;;112288;1247;56198;-59
2023/01/13 07:05:36;;;;;;;;;47.25;39.00;24.60;40.50;;;;;;112280;1244;50416;-59
2023/01/13 07:08:04;;;;;;;;;47.00;39.00;24.50;40.30;;;;;;112271;1247;49276;-58
2023/01/13 07:10:31;;;;;;;;;50.00;38.33;24.50;40.10;;;;;;112318;1247;45987;-59
2023/01/13 07:15:56;;;;;;;;;47.00;36.25;24.40;39.90;;;;;;112310;1247;55793;-59
2023/01/13 07:18:26;;;;;;;;;46.50;38.75;24.30;39.80;;;;;;112299;1247;49811;-59
2023/01/13 07:20:58;;;;;;;;;47.33;39.33;24.20;39.80;;;;;;112301;1244;50447;-59
2023/01/13 07:23:34;;;;;;;;;46.75;37.25;24.20;39.60;;;;;;112324;1247;46407;-59
2023/01/13 07:26:01;;;;;;;;;47.50;37.50;24.10;39.60;;;;;;112302;1247;56759;-59
2023/01/13 07:28:29;;;;;;;;;53.50;42.75;24.10;39.60;;;;;;112316;1244;55989;-59
2023/01/13 07:30:56;;;;;;;;;48.00;38.00;24.00;39.50;;;;;;112298;1248;49722;-59
2023/01/13 07:33:24;;;;;;;;;46.50;39.00;24.00;39.40;;;;;;112313;1247;50017;-61
2023/01/13 07:35:56;;;;;;;;;50.00;39.67;24.00;40.10;;;;;;112254;1247;46090;-60
2023/01/13 07:38:24;;;;;;;;;50.75;41.00;23.90;39.60;;;;;;112314;1247;55595;-58
2023/01/13 07:40:50;;;;;;;;;52.67;40.67;23.90;39.80;;;;;;112312;1247;55955;-60
2023/01/13 07:43:32;;;;;;;;;49.67;38.67;23.90;39.90;;;;;;112299;1244;49375;-63
2023/01/13 07:46:04;;;;;;;;;45.75;37.50;23.80;40.00;;;;;;112300;1244;49636;-59
2023/01/13 07:48:33;;;;;;;;;49.00;39.00;23.80;40.20;;;;;;112299;1247;45855;-58
2023/01/13 07:51:01;;;;;;;;;48.00;39.50;23.80;39.80;;;;;;112330;1244;56309;-58
2023/01/13 07:53:28;;;;;;;;;49.25;40.25;23.80;39.80;;;;;;112319;1247;56669;-58
2023/01/13 07:55:56;;;;;;;;;51.25;41.75;23.70;39.60;;;;;;112316;1247;50642;-60
2023/01/13 07:58:24;;;;;;;;;48.25;39.00;23.70;39.60;;;;;;112332;1247;48975;-62
2023/01/13 08:00:52;;;;;;;;;51.00;42.00;23.60;39.60;;;;;;112335;1247;45447;-61
2023/01/13 08:03:18;;;;;;;;;49.75;40.25;23.60;39.80;;;;;;112346;1247;56320;-59
2023/01/13 08:05:46;;;;;;;;;48.25;38.50;23.50;39.90;;;;;;112244;1247;56033;-59
2023/01/13 08:08:14;;;;;;;;;45.00;38.00;23.60;39.80;;;;;;112118;1249;49374;-62
2023/01/13 08:10:41;;;;;;;;;47.75;39.50;23.50;39.70;;;;;;112119;1244;50157;-59
2023/01/13 08:13:16;;;;;;;;;49.00;39.33;23.50;39.60;;;;;;112099;1250;45725;-70
2023/01/13 08:15:45;;;;;;;;;47.00;38.33;23.50;40.30;;;;;;112084;1246;56526;-65
2023/01/13 08:18:12;;;;;;;;;50.33;42.00;23.50;41.10;;;;;;112289;1248;56006;-65
2023/01/13 08:20:39;;;;;;;;;49.50;37.75;23.50;42.00;;;;;;112328;1247;50571;-68
2023/01/13 08:23:06;;;;;;;;;48.50;38.50;23.60;42.60;;;;;;112096;1250;49591;-68
2023/01/13 08:25:33;;;;;;;;;45.25;38.25;23.60;42.80;;;;;;112249;1244;46281;-63
2023/01/13 08:28:00;;;;;;;;;45.33;37.33;23.60;42.90;;;;;;112287;1244;56294;-64
2023/01/13 08:30:28;;;;;;;;;46.00;39.00;23.60;43.20;;;;;;112321;1244;56212;-63
2023/01/13 08:32:55;;;;;;;;;43.33;34.67;23.60;43.30;;;;;;112290;1247;50259;-65
2023/01/13 08:35:22;;;;;;;;;48.25;39.50;23.60;43.30;;;;;;112314;1248;49450;-68
2023/01/13 08:37:50;;;;;;;;;46.75;37.25;23.70;43.60;;;;;;112119;1248;45629;-65
2023/01/13 08:40:18;;;;;;;;;44.00;37.67;23.80;43.50;;;;;;112302;1247;56340;-70
2023/01/13 08:42:45;;;;;;;;;44.00;35.50;23.90;43.30;;;;;;112292;1244;55831;-64
2023/01/13 08:45:12;;;;;;;;;49.00;40.25;23.90;43.30;;;;;;112325;1244;49787;-65
2023/01/13 08:47:39;;;;;;;;;49.00;40.00;24.00;43.40;;;;;;112291;1247;49010;-63
2023/01/13 08:50:07;;;;;;;;;46.75;38.50;24.00;43.50;;;;;;112306;1245;45687;-64
2023/01/13 08:52:34;;;;;;;;;50.00;39.75;24.00;43.40;;;;;;112277;1247;56098;-64
2023/01/13 08:55:01;;;;;;;;;49.50;39.00;24.00;43.40;;;;;;112317;1247;56478;-65
2023/01/13 08:57:28;;;;;;;;;44.00;37.00;24.00;43.50;;;;;;112288;1247;49745;-65
2023/01/13 08:59:55;;;;;;;;;44.00;36.00;24.00;43.50;;;;;;112263;1244;49949;-65
2023/01/13 09:02:23;;;;;;;;;48.00;39.00;24.00;43.40;;;;;;112327;1247;45177;-65
2023/01/13 09:04:51;;;;;;;;;46.33;36.00;24.00;43.50;;;;;;112307;1247;56300;-68
2023/01/13 09:07:18;;;;;;;;;51.33;40.33;24.00;43.50;;;;;;112281;1247;56114;-69
2023/01/13 09:09:45;;;;;;;;;48.75;39.50;24.00;44.10;;;;;;112294;1247;48764;-68
2023/01/13 09:15:00;;;;;;;;;45.75;36.75;24.10;43.80;;;;;;112299;1247;45311;-64
2023/01/13 09:17:27;;;;;;;;;45.00;37.00;24.20;43.80;;;;;;112308;1247;55741;-62
2023/01/13 09:19:54;;;;;;;;;44.50;37.75;24.20;44.10;;;;;;112292;1244;56565;-62
2023/01/13 09:22:25;;;;;;;;;45.00;36.75;24.30;43.70;;;;;;112325;1247;49802;-64
2023/01/13 09:24:53;;;;;;;;;52.67;43.00;24.30;43.70;;;;;;112292;1248;49611;-70
2023/01/13 09:27:22;;;;;;;;;56.00;44.33;24.30;43.50;;;;;;112290;1248;45844;-68
2023/01/13 09:29:49;;;;;;;;;57.00;43.00;24.30;43.60;;;;;;112297;1247;55605;-80
2023/01/13 09:32:16;;;;;;;;;55.00;43.00;24.30;43.70;;;;;;112313;1247;55543;-63
2023/01/13 09:35:01;;;;;;;;;55.75;44.50;24.30;44.10;;;;;;112301;1244;49823;-62
2023/01/13 09:37:36;;;;;;;;;51.25;41.75;24.20;43.50;;;;;;112299;1247;49177;-61
2023/01/13 09:40:07;;;;;;;;;51.33;40.67;24.30;43.60;;;;;;112320;1247;46195;-61
2023/01/13 09:45:49;;;;;;;;;48.00;38.33;24.20;43.70;;;;;;112153;1247;55778;-62
2023/01/13 09:48:51;;;;;;;;;51.67;41.00;24.20;43.60;;;;;;112294;1247;48958;-64
2023/01/13 09:51:23;;;;;;;;;47.67;39.33;24.20;43.40;;;;;;112283;1247;49330;-62
2023/01/13 09:53:55;;;;;;;;;53.67;43.33;24.30;43.50;;;;;;112172;1244;45764;-66
2023/01/13 09:56:24;;;;;;;;;55.75;43.25;24.30;43.30;;;;;;112301;1247;56470;-68
2023/01/13 09:58:51;;;;;;;;;49.00;40.67;24.30;43.40;;;;;;112282;1247;56475;-68
2023/01/13 10:01:33;;;;;;;;;49.50;40.00;24.30;43.20;;;;;;112259;1247;48847;-61
2023/01/13 10:04:09;;;;;;;;;47.00;39.00;24.40;43.20;;;;;;112279;1245;49460;-61
2023/01/13 10:06:40;;;;;;;;;43.00;36.00;24.50;43.20;;;;;;112114;1248;46381;-65
2023/01/13 10:09:14;;;;;;;;;50.67;40.33;24.60;43.10;;;;;;112281;1247;55526;-61
2023/01/13 10:14:37;;;;;;;;;48.50;39.25;24.80;43.20;;;;;;112157;1247;49749;-64
2023/01/13 10:17:23;;;;;;;;;44.00;36.50;24.90;43.40;;;;;;112285;1247;49502;-66
2023/01/13 10:20:27;;;;;;;;;48.00;39.50;25.00;43.50;;;;;;112286;1247;45237;-66
2023/01/13 10:23:06;;;;;;;;;44.50;37.00;25.20;43.60;;;;;;112286;1247;56501;-63
2023/01/13 10:26:04;;;;;;;;;48.00;38.50;25.20;43.30;;;;;;112283;1244;55833;-61
2023/01/13 10:28:31;;;;;;;;;42.75;35.25;25.30;43.40;;;;;;112252;1247;49452;-61
2023/01/13 10:30:58;;;;;;;;;45.00;36.33;25.30;43.20;;;;;;112293;1247;50388;-61
2023/01/13 10:33:27;;;;;;;;;47.33;37.33;25.30;43.20;;;;;;112130;1247;46307;-61
2023/01/13 10:35:58;;;;;;;;;42.67;34.33;25.30;43.20;;;;;;112313;1247;55797;-61
2023/01/13 10:38:27;;;;;;;;;35.25;31.00;25.30;43.50;;;;;;112133;1244;56397;-61
2023/01/13 10:40:55;;;;;;;;;44.75;35.00;25.30;43.40;;;;;;112316;1247;49131;-62
2023/01/13 10:43:23;;;;;;;;;44.33;36.67;25.30;43.20;;;;;;112301;1247;50232;-61
2023/01/13 10:46:01;;;;;;;;;39.00;34.00;25.40;43.70;;;;;;112338;1247;46271;-63
2023/01/13 10:48:40;;;;;;;;;39.00;32.00;25.40;43.70;;;;;;112308;1247;56207;-64
2023/01/13 10:51:30;;;;;;;;;40.50;33.00;25.50;43.80;;;;;;112264;1248;56393;-62
2023/01/13 10:54:01;;;;;;;;;43.75;34.75;25.50;43.50;;;;;;112267;1244;50118;-62
2023/01/13 10:56:31;;;;;;;;;44.75;36.50;25.60;43.50;;;;;;112272;1244;49568;-65
2023/01/13 10:59:13;;;;;;;;;42.00;34.00;25.60;43.70;;;;;;112194;1248;46121;-65
2023/01/13 11:01:42;;;;;;;;;41.00;33.00;25.70;44.20;;;;;;112092;1249;56515;-65
2023/01/13 11:04:31;;;;;;;;;42.00;33.67;25.80;43.80;;;;;;112059;1250;55829;-65
2023/01/13 11:06:58;;;;;;;;;46.50;36.25;25.80;43.70;;;;;;112097;1249;49102;-64
2023/01/13 11:09:26;;;;;;;;;42.00;33.00;25.90;43.60;;;;;;112092;1250;50150;-64
2023/01/13 11:11:55;;;;;;;;;40.50;33.00;26.00;43.70;;;;;;112102;1250;45982;-64
2023/01/13 11:14:31;;;;;;;;;39.75;32.25;26.00;43.70;;;;;;112087;1245;56653;-65
2023/01/13 11:17:21;;;;;;;;;40.00;33.75;26.00;43.60;;;;;;112099;1245;55831;-65
2023/01/13 11:19:54;;;;;;;;;37.00;31.00;26.10;43.60;;;;;;112095;1249;49658;-62
2023/01/13 11:22:45;;;;;;;;;35.67;31.00;26.20;43.80;;;;;;112099;1245;49342;-63
2023/01/13 11:25:21;;;;;;;;;37.50;31.50;26.30;43.60;;;;;;112098;1249;45235;-61
2023/01/13 11:27:57;;;;;;;;;38.50;30.75;26.40;43.50;;;;;;112123;1249;55754;-61
2023/01/13 11:30:42;;;;;;;;;42.25;33.00;26.50;43.50;;;;;;112119;1250;56471;-62
2023/01/13 11:33:09;;;;;;;;;34.50;31.00;26.50;43.50;;;;;;112104;1244;49774;-63
2023/01/13 11:36:02;;;;;;;;;36.00;32.67;26.60;43.50;;;;;;112069;1244;49253;-64
2023/01/13 11:38:51;;;;;;;;;40.25;33.25;26.60;43.90;;;;;;112139;1250;45562;-64
2023/01/13 11:41:26;;;;;;;;;37.25;31.00;26.60;43.60;;;;;;112111;1244;55532;-62
2023/01/13 11:44:18;;;;;;;;;36.25;31.00;26.70;43.60;;;;;;112115;1249;56662;-62
2023/01/13 11:46:49;;;;;;;;;36.25;32.25;26.70;43.50;;;;;;112010;1249;49294;-70
2023/01/13 11:49:31;;;;;;;;;39.50;33.50;26.90;48.70;;;;;;112134;1249;50206;-64
2023/01/13 11:52:17;;;;;;;;;33.00;28.67;27.10;44.60;;;;;;112282;1245;45813;-61
2023/01/13 11:54:59;;;;;;;;;36.00;30.00;27.10;43.40;;;;;;112344;1247;56094;-67
2023/01/13 11:57:53;;;;;;;;;37.00;31.00;27.10;44.00;;;;;;112275;1247;56170;-63
2023/01/13 12:00:39;;;;;;;;;31.33;29.00;27.20;43.50;;;;;;112121;1249;49175;-64
2023/01/13 12:03:35;;;;;;;;;32.50;27.50;27.20;43.00;;;;;;112168;1249;50558;-65
2023/01/13 12:06:12;;;;;;;;;33.25;24.50;27.20;43.40;;;;;;111759;1253;45748;-60
2023/01/13 12:08:58;;;;;;;;;26.75;24.00;27.20;42.80;;;;;;112138;1249;56402;-59
2023/01/13 12:12:20;;;;;;;;;30.00;27.50;27.20;42.50;;;;;;112112;1249;55376;-59
2023/01/13 12:15:16;;;;;;;;;25.00;24.00;27.10;42.00;;;;;;111965;1249;50122;-60
2023/01/13 12:17:55;;;;;;;;;28.50;26.00;27.00;41.70;;;;;;112106;1249;49813;-64
2023/01/13 12:20:40;;;;;;;;;28.00;25.00;27.00;41.40;;;;;;112279;1247;45933;-64
2023/01/13 12:23:31;;;;;;;;;23.00;22.00;26.90;41.20;;;;;;111825;1247;835584;-61
2023/01/13 12:26:13;;;;;;;;;24.25;21.50;26.80;40.50;;;;;;112171;1244;55312;-61
2023/01/13 12:28:47;;;;;;;;;23.50;22.00;26.80;39.70;;;;;;112322;1247;49460;-61
2023/01/13 12:31:17;;;;;;;;;22.33;21.00;26.70;39.00;;;;;;112302;1247;48818;-61
2023/01/13 12:33:50;;;;;;;;;25.00;23.00;26.70;38.50;;;;;;112290;1247;45850;-60
2023/01/13 12:36:38;;;;;;;;;22.00;20.00;26.50;37.80;;;;;;112279;1247;56709;-61
2023/01/13 12:39:30;;;;;;;;;23.75;21.00;26.40;37.60;;;;;;112299;1247;55868;-61
2023/01/13 12:45:08;;;;;;;;;21.67;19.33;26.20;37.40;;;;;;112211;1248;49271;-60
2023/01/13 12:47:38;;;;;;;;;27.50;21.00;26.10;37.30;;;;;;112267;1247;45484;-60
2023/01/13 12:50:26;;;;;;;;;20.50;17.50;26.00;37.10;;;;;;112307;1247;56012;-61
2023/01/13 12:53:20;;;;;;;;;20.00;18.25;26.00;37.00;;;;;;112290;1247;55897;-60
2023/01/13 12:55:51;;;;;;;;;20.67;17.00;25.90;36.90;;;;;;112262;1245;49860;-61
2023/01/13 12:58:27;;;;;;;;;19.75;18.00;25.80;37.00;;;;;;112280;1244;49579;-61
2023/01/13 13:01:00;;;;;;;;;23.00;18.25;25.70;37.10;;;;;;112289;1247;46368;-61
2023/01/13 13:03:30;;;;;;;;;22.00;20.00;25.70;37.00;;;;;;112303;1247;56327;-61
2023/01/13 13:06:21;;;;;;;;;22.75;18.00;25.60;37.10;;;;;;112290;1247;55517;-60
2023/01/13 13:09:01;;;;;;;;;23.33;19.00;25.50;37.00;;;;;;112242;1248;49193;-62
2023/01/13 13:14:38;;;;;;;;;19.00;17.67;25.40;37.00;;;;;;112267;1245;45394;-61
2023/01/13 13:17:27;;;;;;;;;20.75;19.50;25.40;37.00;;;;;;112320;1244;55883;-61
2023/01/13 13:19:56;;;;;;;;;23.25;21.00;25.30;37.10;;;;;;112279;1247;55305;-61
2023/01/13 13:22:26;;;;;;;;;22.00;21.00;25.20;37.00;;;;;;112281;1247;50705;-61
2023/01/13 13:24:58;;;;;;;;;29.00;25.67;25.20;36.90;;;;;;112278;1247;48945;-61
2023/01/13 13:27:31;;;;;;;;;23.25;19.00;25.20;37.00;;;;;;112293;1244;46074;-60
2023/01/13 13:30:02;;;;;;;;;28.25;23.50;25.10;36.90;;;;;;112286;1244;55956;-60
2023/01/13 13:32:44;;;;;;;;;21.50;20.00;25.00;36.90;;;;;;112263;1244;55529;-60